createdAt,value
2017-01-17T00:00:53.593Z,72.55
2017-01-17T00:01:53.607Z,72.55
2017-01-17T00:02:53.616Z,72.64
2017-01-17T00:03:53.745Z,72.64
2017-01-17T00:04:53.718Z,72.55
2017-01-17T00:05:53.788Z,72.27
2017-01-17T00:06:53.780Z,72.74
2017-01-17T00:07:53.702Z,72.36
2017-01-17T00:08:53.714Z,73.22
2017-01-17T00:09:53.793Z,72.74
2017-01-17T00:10:53.708Z,72.36
2017-01-17T00:11:53.718Z,72.55
2017-01-17T00:12:53.731Z,72.64
2017-01-17T00:13:53.741Z,72.84
2017-01-17T00:14:53.753Z,72.84
2017-01-17T00:15:53.788Z,72.84
2017-01-17T00:16:53.776Z,73.03
2017-01-17T00:17:53.788Z,73.03
2017-01-17T00:18:53.801Z,72.84
2017-01-17T00:19:53.807Z,72.84
2017-01-17T00:20:53.819Z,72.17
2017-01-17T00:21:53.831Z,72.36
2017-01-17T00:22:53.841Z,72.36
2017-01-17T00:23:53.855Z,72.55
2017-01-17T00:24:53.867Z,72.55
2017-01-17T00:25:53.878Z,72.64
2017-01-17T00:26:54.069Z,72.64
2017-01-17T00:27:53.906Z,72.55
2017-01-17T00:28:53.911Z,72.55
2017-01-17T00:29:53.922Z,72.55
2017-01-17T00:30:53.934Z,72.55
2017-01-17T00:31:53.943Z,72.64
2017-01-17T00:32:53.953Z,72.74
2017-01-17T00:33:53.966Z,72.64
2017-01-17T00:34:54.093Z,72.84
2017-01-17T00:35:53.989Z,72.84
2017-01-17T00:36:54.001Z,72.74
2017-01-17T00:37:54.012Z,72.74
2017-01-17T00:38:54.023Z,72.84
2017-01-17T00:39:54.033Z,72.84
2017-01-17T00:40:54.045Z,72.55
2017-01-17T00:41:54.055Z,72.74
2017-01-17T00:42:54.066Z,72.64
2017-01-17T00:43:54.079Z,72.84
2017-01-17T00:44:54.090Z,72.84
2017-01-17T00:45:54.101Z,72.84
2017-01-17T00:46:54.112Z,72.84
2017-01-17T00:47:54.123Z,72.27
2017-01-17T00:48:54.147Z,72.17
2017-01-17T00:49:54.147Z,72.17
2017-01-17T00:50:54.161Z,72.17
2017-01-17T00:51:54.169Z,72.27
2017-01-17T00:52:54.185Z,72.36
2017-01-17T00:53:54.192Z,72.36
2017-01-17T00:54:54.210Z,72.36
2017-01-17T00:55:54.214Z,72.08
2017-01-17T00:56:54.227Z,72.17
2017-01-17T00:57:54.256Z,72.36
2017-01-17T00:58:54.250Z,72.17
2017-01-17T00:59:54.272Z,72.08
2017-01-17T01:00:54.417Z,72.17
2017-01-17T01:01:54.284Z,72.55
2017-01-17T01:02:54.294Z,72.17
2017-01-17T01:03:54.306Z,72.08
2017-01-17T01:04:54.315Z,72.17
2017-01-17T01:05:54.327Z,72.08
2017-01-17T01:06:54.339Z,72.17
2017-01-17T01:07:54.461Z,72.08
2017-01-17T01:08:54.476Z,72.08
2017-01-17T01:09:54.372Z,72.08
2017-01-17T01:10:54.385Z,72.45
2017-01-17T01:11:54.393Z,72.17
2017-01-17T01:12:54.404Z,72.17
2017-01-17T01:13:54.495Z,72.17
2017-01-17T01:14:54.426Z,72.36
2017-01-17T01:15:54.711Z,72.45
2017-01-17T01:16:54.566Z,72.55
2017-01-17T01:17:54.462Z,72.36
2017-01-17T01:18:54.556Z,72.36
2017-01-17T01:19:54.592Z,72.36
2017-01-17T01:20:54.495Z,72.36
2017-01-17T01:21:54.504Z,72.45
2017-01-17T01:22:54.516Z,72.17
2017-01-17T01:23:54.531Z,72.36
2017-01-17T01:24:54.540Z,72.45
2017-01-17T01:25:54.552Z,72.08
2017-01-17T01:26:54.561Z,71.6
2017-01-17T01:27:54.573Z,71.89
2017-01-17T01:28:54.583Z,71.98
2017-01-17T01:29:54.595Z,71.7
2017-01-17T01:30:54.606Z,71.98
2017-01-17T01:31:54.617Z,71.6
2017-01-17T01:32:54.627Z,71.32
2017-01-17T01:33:54.640Z,71.41
2017-01-17T01:34:54.659Z,71.51
2017-01-17T01:35:54.669Z,71.89
2017-01-17T01:36:54.675Z,71.7
2017-01-17T01:37:54.687Z,71.51
2017-01-17T01:38:54.695Z,71.51
2017-01-17T01:39:54.823Z,71.03
2017-01-17T01:40:54.718Z,71.22
2017-01-17T01:41:54.731Z,71.22
2017-01-17T01:42:54.740Z,71.51
2017-01-17T01:43:54.751Z,71.22
2017-01-17T01:44:54.763Z,71.03
2017-01-17T01:45:54.777Z,71.32
2017-01-17T01:46:54.782Z,71.13
2017-01-17T01:47:54.798Z,70.84
2017-01-17T01:48:54.809Z,71.03
2017-01-17T01:49:54.821Z,71.41
2017-01-17T01:50:54.833Z,71.22
2017-01-17T01:51:54.843Z,71.51
2017-01-17T01:52:54.855Z,71.51
2017-01-17T01:53:54.869Z,71.6
2017-01-17T01:54:54.875Z,71.22
2017-01-17T01:55:54.886Z,71.03
2017-01-17T01:56:54.900Z,71.13
2017-01-17T01:57:55.022Z,71.03
2017-01-17T01:58:54.919Z,71.22
2017-01-17T01:59:54.932Z,71.03
2017-01-17T02:00:54.944Z,71.41
2017-01-17T02:01:54.956Z,70.75
2017-01-17T02:02:55.007Z,71.03
2017-01-17T02:03:54.977Z,70.65
2017-01-17T02:04:54.987Z,71.03
2017-01-17T02:05:54.996Z,70.84
2017-01-17T02:06:55.012Z,70.65
2017-01-17T02:07:55.026Z,70.94
2017-01-17T02:08:55.040Z,71.03
2017-01-17T02:09:55.042Z,70.56
2017-01-17T02:10:55.144Z,70.94
2017-01-17T02:11:55.067Z,71.03
2017-01-17T02:12:55.078Z,71.32
2017-01-17T02:13:55.090Z,71.32
2017-01-17T02:14:55.100Z,71.32
2017-01-17T02:15:55.161Z,71.41
2017-01-17T02:16:55.122Z,71.03
2017-01-17T02:17:55.135Z,71.22
2017-01-17T02:18:55.144Z,71.13
2017-01-17T02:19:55.175Z,71.22
2017-01-17T02:20:55.185Z,71.13
2017-01-17T02:21:55.179Z,71.32
2017-01-17T02:22:55.193Z,71.13
2017-01-17T02:23:55.201Z,71.22
2017-01-17T02:24:55.213Z,71.22
2017-01-17T02:25:55.222Z,71.03
2017-01-17T02:26:55.329Z,71.22
2017-01-17T02:27:55.244Z,71.22
2017-01-17T02:28:55.255Z,71.03
2017-01-17T02:29:55.267Z,70.94
2017-01-17T02:30:55.276Z,71.13
2017-01-17T02:31:55.289Z,71.22
2017-01-17T02:32:55.303Z,71.13
2017-01-17T02:33:55.312Z,71.03
2017-01-17T02:34:55.324Z,71.32
2017-01-17T02:35:55.332Z,71.03
2017-01-17T02:36:55.346Z,71.22
2017-01-17T02:37:55.355Z,71.22
2017-01-17T02:38:55.367Z,71.22
2017-01-17T02:39:55.383Z,71.13
2017-01-17T02:40:55.393Z,71.32
2017-01-17T02:41:55.402Z,71.03
2017-01-17T02:42:55.413Z,71.22
2017-01-17T02:43:55.425Z,71.13
2017-01-17T02:44:55.436Z,71.22
2017-01-17T02:45:55.445Z,71.22
2017-01-17T02:46:55.459Z,71.41
2017-01-17T02:47:55.471Z,71.22
2017-01-17T02:48:55.481Z,71.22
2017-01-17T02:49:55.492Z,71.51
2017-01-17T02:50:55.503Z,71.41
2017-01-17T02:51:55.515Z,71.22
2017-01-17T02:52:55.686Z,71.51
2017-01-17T02:53:55.534Z,71.6
2017-01-17T02:54:55.548Z,71.51
2017-01-17T02:55:55.558Z,71.6
2017-01-17T02:56:55.570Z,71.6
2017-01-17T02:57:55.583Z,71.7
2017-01-17T02:58:55.590Z,71.41
2017-01-17T02:59:55.601Z,71.6
2017-01-17T03:00:55.615Z,71.51
2017-01-17T03:01:55.623Z,71.7
2017-01-17T03:02:55.638Z,71.03
2017-01-17T03:03:55.645Z,71.03
2017-01-17T03:04:55.660Z,71.32
2017-01-17T03:05:55.668Z,71.22
2017-01-17T03:06:55.683Z,70.75
2017-01-17T03:07:55.691Z,70.65
2017-01-17T03:08:55.819Z,70.65
2017-01-17T03:09:55.826Z,70.75
2017-01-17T03:10:55.725Z,70.65
2017-01-17T03:11:55.738Z,70.84
2017-01-17T03:12:55.983Z,70.65
2017-01-17T03:13:55.759Z,70.65
2017-01-17T03:14:55.804Z,71.03
2017-01-17T03:15:55.788Z,71.22
2017-01-17T03:16:55.793Z,71.41
2017-01-17T03:17:55.805Z,71.41
2017-01-17T03:18:55.813Z,70.75
2017-01-17T03:19:55.826Z,70.94
2017-01-17T03:20:55.837Z,71.41
2017-01-17T03:21:55.845Z,71.41
2017-01-17T03:22:55.860Z,71.22
2017-01-17T03:23:55.877Z,70.94
2017-01-17T03:24:55.973Z,71.22
2017-01-17T03:25:55.892Z,71.22
2017-01-17T03:26:55.902Z,71.41
2017-01-17T03:27:55.914Z,71.03
2017-01-17T03:28:55.929Z,71.03
2017-01-17T03:29:55.964Z,71.13
2017-01-17T03:30:55.947Z,71.51
2017-01-17T03:31:55.960Z,71.32
2017-01-17T03:32:55.970Z,71.41
2017-01-17T03:33:55.981Z,71.32
2017-01-17T03:34:55.995Z,71.22
2017-01-17T03:35:56.034Z,71.03
2017-01-17T03:36:56.016Z,71.03
2017-01-17T03:37:56.029Z,71.22
2017-01-17T03:38:56.039Z,71.22
2017-01-17T03:39:56.051Z,71.22
2017-01-17T03:40:56.059Z,71.32
2017-01-17T03:41:56.073Z,71.32
2017-01-17T03:42:56.083Z,71.41
2017-01-17T03:43:56.094Z,71.41
2017-01-17T03:44:56.102Z,70.75
2017-01-17T03:45:56.117Z,70.94
2017-01-17T03:46:56.175Z,70.84
2017-01-17T03:47:56.135Z,70.56
2017-01-17T03:48:56.150Z,70.84
2017-01-17T03:49:56.174Z,70.56
2017-01-17T03:50:56.174Z,70.65
2017-01-17T03:51:56.181Z,70.94
2017-01-17T03:52:56.225Z,71.13
2017-01-17T03:53:56.207Z,70.75
2017-01-17T03:54:56.279Z,71.51
2017-01-17T03:55:56.292Z,71.41
2017-01-17T03:56:56.303Z,70.94
2017-01-17T03:57:56.247Z,71.32
2017-01-17T03:58:56.311Z,71.51
2017-01-17T03:59:56.273Z,71.32
2017-01-17T04:00:56.284Z,70.56
2017-01-17T04:01:56.292Z,70.56
2017-01-17T04:02:56.304Z,70.94
2017-01-17T04:03:56.316Z,70.84
2017-01-17T04:04:56.326Z,70.94
2017-01-17T04:05:56.342Z,70.75
2017-01-17T04:06:56.348Z,70.94
2017-01-17T04:07:56.361Z,70.94
2017-01-17T04:08:56.372Z,70.47
2017-01-17T04:09:56.383Z,70.56
2017-01-17T04:10:56.393Z,70.65
2017-01-17T04:11:56.406Z,70.56
2017-01-17T04:12:56.416Z,70.65
2017-01-17T04:13:56.426Z,70.28
2017-01-17T04:14:56.439Z,70.47
2017-01-17T04:15:56.450Z,70.47
2017-01-17T04:16:56.772Z,70.28
2017-01-17T04:17:56.480Z,70.65
2017-01-17T04:18:56.486Z,70.37
2017-01-17T04:19:56.497Z,70.37
2017-01-17T04:20:56.504Z,70.65
2017-01-17T04:21:56.515Z,70.65
2017-01-17T04:22:56.530Z,70.56
2017-01-17T04:23:56.539Z,70.47
2017-01-17T04:24:56.554Z,70.28
2017-01-17T04:25:56.559Z,70.28
2017-01-17T04:26:56.570Z,69.99
2017-01-17T04:27:56.588Z,70.47
2017-01-17T04:28:56.594Z,70.65
2017-01-17T04:29:56.605Z,70.56
2017-01-17T04:30:56.615Z,70.56
2017-01-17T04:31:56.628Z,70.65
2017-01-17T04:32:56.635Z,70.18
2017-01-17T04:33:56.648Z,70.37
2017-01-17T04:34:56.660Z,70.28
2017-01-17T04:35:56.674Z,70.47
2017-01-17T04:36:56.681Z,70.28
2017-01-17T04:37:56.693Z,70.37
2017-01-17T04:38:56.706Z,70.28
2017-01-17T04:39:56.716Z,70.75
2017-01-17T04:40:56.724Z,70.75
2017-01-17T04:41:56.743Z,70.75
2017-01-17T04:42:56.754Z,70.65
2017-01-17T04:43:56.758Z,70.37
2017-01-17T04:44:56.773Z,70.18
2017-01-17T04:45:56.780Z,70.56
2017-01-17T04:46:56.794Z,70.37
2017-01-17T04:47:56.804Z,70.84
2017-01-17T04:48:56.816Z,70.28
2017-01-17T04:49:56.824Z,70.37
2017-01-17T04:50:56.833Z,70.47
2017-01-17T04:51:56.851Z,70.47
2017-01-17T04:52:56.863Z,70.09
2017-01-17T04:53:56.866Z,69.99
2017-01-17T04:54:56.878Z,70.28
2017-01-17T04:55:56.892Z,70.28
2017-01-17T04:56:56.901Z,70.56
2017-01-17T04:57:56.916Z,70.75
2017-01-17T04:58:56.925Z,70.18
2017-01-17T04:59:56.937Z,69.99
2017-01-17T05:00:56.948Z,70.18
2017-01-17T05:01:56.955Z,70.28
2017-01-17T05:02:56.971Z,70.09
2017-01-17T05:03:56.979Z,70.28
2017-01-17T05:04:56.988Z,70.28
2017-01-17T05:05:57.002Z,69.9
2017-01-17T05:06:57.012Z,70.37
2017-01-17T05:07:57.023Z,70.09
2017-01-17T05:08:57.033Z,70.09
2017-01-17T05:09:57.043Z,70.37
2017-01-17T05:10:57.055Z,69.8
2017-01-17T05:11:57.069Z,69.99
2017-01-17T05:12:57.079Z,69.9
2017-01-17T05:13:57.092Z,69.9
2017-01-17T05:14:57.102Z,69.71
2017-01-17T05:15:57.111Z,69.9
2017-01-17T05:16:57.125Z,69.99
2017-01-17T05:17:57.137Z,70.18
2017-01-17T05:18:57.145Z,69.9
2017-01-17T05:19:57.155Z,70.09
2017-01-17T05:20:57.165Z,69.57
2017-01-17T05:21:57.175Z,70.24
2017-01-17T05:22:57.184Z,69.99
2017-01-17T05:23:57.197Z,70.28
2017-01-17T05:24:57.211Z,70.84
2017-01-17T05:25:57.219Z,70.65
2017-01-17T05:26:57.230Z,70.47
2017-01-17T05:27:57.243Z,70.56
2017-01-17T05:28:57.658Z,70.37
2017-01-17T05:29:57.265Z,70.65
2017-01-17T05:30:57.276Z,70.28
2017-01-17T05:31:57.286Z,70.09
2017-01-17T05:32:57.296Z,70.75
2017-01-17T05:33:57.308Z,70.56
2017-01-17T05:34:57.315Z,70.56
2017-01-17T05:35:57.327Z,70.75
2017-01-17T05:36:57.345Z,70.65
2017-01-17T05:37:57.351Z,70.47
2017-01-17T05:38:57.363Z,70.47
2017-01-17T05:39:57.372Z,70.47
2017-01-17T05:40:57.381Z,70.37
2017-01-17T05:41:57.392Z,70.47
2017-01-17T05:42:57.402Z,70.18
2017-01-17T05:43:57.416Z,70.28
2017-01-17T05:44:57.425Z,70.47
2017-01-17T05:45:57.436Z,70.37
2017-01-17T05:46:57.648Z,70.56
2017-01-17T05:47:57.464Z,70.65
2017-01-17T05:48:57.468Z,70.75
2017-01-17T05:49:57.477Z,70.18
2017-01-17T05:50:57.494Z,70.28
2017-01-17T05:51:57.504Z,70.56
2017-01-17T05:52:57.512Z,70.75
2017-01-17T05:53:57.525Z,70.84
2017-01-17T05:54:57.540Z,71.03
2017-01-17T05:55:57.548Z,70.94
2017-01-17T05:56:57.558Z,70.94
2017-01-17T05:57:57.567Z,70.75
2017-01-17T05:58:57.585Z,71.03
2017-01-17T05:59:57.587Z,70.94
2017-01-17T06:00:57.599Z,71.03
2017-01-17T06:01:57.613Z,70.84
2017-01-17T06:02:57.621Z,70.65
2017-01-17T06:03:57.634Z,71.22
2017-01-17T06:04:57.642Z,70.84
2017-01-17T06:05:57.656Z,71.32
2017-01-17T06:06:57.662Z,71.32
2017-01-17T06:07:57.677Z,71.32
2017-01-17T06:08:57.687Z,71.41
2017-01-17T06:09:57.697Z,71.22
2017-01-17T06:10:57.711Z,71.03
2017-01-17T06:11:57.724Z,71.03
2017-01-17T06:12:57.730Z,71.03
2017-01-17T06:13:57.742Z,71.13
2017-01-17T06:14:57.752Z,71.22
2017-01-17T06:15:57.762Z,71.22
2017-01-17T06:16:57.775Z,71.22
2017-01-17T06:17:57.784Z,71.22
2017-01-17T06:18:57.794Z,71.03
2017-01-17T06:19:57.804Z,71.32
2017-01-17T06:20:57.814Z,71.41
2017-01-17T06:21:57.829Z,71.03
2017-01-17T06:22:57.838Z,71.03
2017-01-17T06:23:57.850Z,71.32
2017-01-17T06:24:57.860Z,71.22
2017-01-17T06:25:57.873Z,71.6
2017-01-17T06:26:57.886Z,71.41
2017-01-17T06:27:57.892Z,71.51
2017-01-17T06:28:57.903Z,71.51
2017-01-17T06:29:57.913Z,71.51
2017-01-17T06:30:57.925Z,71.51
2017-01-17T06:31:57.941Z,71.41
2017-01-17T06:32:57.945Z,71.41
2017-01-17T06:33:57.962Z,71.7
2017-01-17T06:34:57.966Z,71.6
2017-01-17T06:35:57.977Z,71.32
2017-01-17T06:36:57.987Z,71.51
2017-01-17T06:37:58.004Z,71.7
2017-01-17T06:38:58.131Z,71.51
2017-01-17T06:39:58.024Z,71.6
2017-01-17T06:40:58.034Z,71.7
2017-01-17T06:41:58.044Z,71.51
2017-01-17T06:42:58.057Z,71.6
2017-01-17T06:43:58.069Z,71.51
2017-01-17T06:44:58.077Z,71.6
2017-01-17T06:45:58.088Z,71.51
2017-01-17T06:46:58.099Z,71.7
2017-01-17T06:47:58.109Z,71.51
2017-01-17T06:48:58.123Z,71.7
2017-01-17T06:49:58.130Z,71.89
2017-01-17T06:50:58.140Z,71.7
2017-01-17T06:51:58.153Z,72.08
2017-01-17T06:52:58.169Z,71.98
2017-01-17T06:53:58.183Z,71.98
2017-01-17T06:54:58.185Z,72.08
2017-01-17T06:55:58.199Z,71.8
2017-01-17T06:56:58.210Z,71.8
2017-01-17T06:57:58.222Z,71.89
2017-01-17T06:58:58.245Z,71.98
2017-01-17T06:59:58.238Z,71.89
2017-01-17T07:00:58.250Z,71.8
2017-01-17T07:01:58.261Z,71.98
2017-01-17T07:02:58.274Z,71.8
2017-01-17T07:03:58.290Z,71.98
2017-01-17T07:04:58.296Z,71.7
2017-01-17T07:05:58.308Z,71.89
2017-01-17T07:06:58.319Z,71.7
2017-01-17T07:07:58.331Z,71.89
2017-01-17T07:08:58.343Z,71.98
2017-01-17T07:09:58.350Z,71.89
2017-01-17T07:10:58.365Z,71.98
2017-01-17T07:11:58.373Z,71.98
2017-01-17T07:12:58.382Z,72.08
2017-01-17T07:13:58.397Z,71.7
2017-01-17T07:14:58.413Z,71.8
2017-01-17T07:15:58.417Z,71.7
2017-01-17T07:16:58.428Z,71.7
2017-01-17T07:17:58.442Z,71.8
2017-01-17T07:18:58.450Z,72.08
2017-01-17T07:19:58.461Z,71.89
2017-01-17T07:20:58.473Z,72.08
2017-01-17T07:21:58.484Z,71.89
2017-01-17T07:22:58.489Z,71.89
2017-01-17T07:23:58.503Z,71.89
2017-01-17T07:24:58.514Z,71.7
2017-01-17T07:25:58.527Z,71.89
2017-01-17T07:26:58.540Z,71.7
2017-01-17T07:27:58.549Z,72.17
2017-01-17T07:28:58.559Z,72.27
2017-01-17T07:29:58.569Z,72.08
2017-01-17T07:30:58.581Z,72.27
2017-01-17T07:31:58.591Z,72.27
2017-01-17T07:32:58.603Z,72.45
2017-01-17T07:33:58.613Z,72.08
2017-01-17T07:34:58.626Z,72.64
2017-01-17T07:35:58.637Z,72.17
2017-01-17T07:36:58.646Z,72.08
2017-01-17T07:37:58.656Z,72.17
2017-01-17T07:38:58.668Z,72.08
2017-01-17T07:39:58.680Z,72.36
2017-01-17T07:40:58.692Z,72.93
2017-01-17T07:41:58.700Z,72.93
2017-01-17T07:42:58.714Z,72.84
2017-01-17T07:43:58.724Z,72.74
2017-01-17T07:44:58.737Z,72.74
2017-01-17T07:45:58.746Z,72.84
2017-01-17T07:46:58.761Z,72.93
2017-01-17T07:47:58.770Z,72.84
2017-01-17T07:48:58.782Z,72.74
2017-01-17T07:49:58.788Z,72.84
2017-01-17T07:50:58.800Z,72.84
2017-01-17T07:51:58.808Z,72.84
2017-01-17T07:52:58.822Z,72.74
2017-01-17T07:53:58.836Z,72.55
2017-01-17T07:54:58.843Z,72.55
2017-01-17T07:55:58.852Z,72.55
2017-01-17T07:56:58.865Z,72.55
2017-01-17T07:57:58.877Z,72.64
2017-01-17T07:58:58.888Z,72.64
2017-01-17T07:59:58.898Z,72.55
2017-01-17T08:00:58.910Z,72.64
2017-01-17T08:01:58.924Z,72.55
2017-01-17T08:02:58.933Z,72.55
2017-01-17T08:03:58.944Z,72.55
2017-01-17T08:04:58.957Z,72.45
2017-01-17T08:05:58.963Z,72.64
2017-01-17T08:06:58.975Z,72.55
2017-01-17T08:07:58.988Z,72.45
2017-01-17T08:08:58.998Z,72.74
2017-01-17T08:09:59.007Z,72.45
2017-01-17T08:10:59.023Z,72.64
2017-01-17T08:11:59.097Z,72.74
2017-01-17T08:12:59.124Z,72.74
2017-01-17T08:13:59.235Z,72.36
2017-01-17T08:14:59.365Z,72.45
2017-01-17T08:15:59.342Z,72.45
2017-01-17T08:16:59.086Z,72.36
2017-01-17T08:17:59.354Z,72.36
2017-01-17T08:18:59.196Z,72.45
2017-01-17T08:19:59.289Z,72.36
2017-01-17T08:20:59.131Z,72.27
2017-01-17T08:21:59.143Z,72.74
2017-01-17T08:22:59.154Z,73.12
2017-01-17T08:23:59.162Z,72.74
2017-01-17T08:24:59.178Z,72.36
2017-01-17T08:25:59.184Z,72.45
2017-01-17T08:26:59.197Z,72.36
2017-01-17T08:27:59.207Z,72.45
2017-01-17T08:28:59.216Z,72.45
2017-01-17T08:29:59.229Z,72.36
2017-01-17T08:30:59.240Z,72.36
2017-01-17T08:31:59.251Z,72.64
2017-01-17T08:32:59.261Z,72.55
2017-01-17T08:33:59.271Z,72.45
2017-01-17T08:34:59.282Z,72.64
2017-01-17T08:35:59.296Z,72.55
2017-01-17T08:36:59.304Z,72.64
2017-01-17T08:37:59.315Z,72.74
2017-01-17T08:38:59.331Z,72.55
2017-01-17T08:39:59.338Z,72.36
2017-01-17T08:40:59.351Z,72.45
2017-01-17T08:41:59.364Z,72.45
2017-01-17T08:42:59.377Z,72.74
2017-01-17T08:43:59.383Z,72.64
2017-01-17T08:44:59.394Z,72.36
2017-01-17T08:45:59.409Z,72.45
2017-01-17T08:46:59.416Z,72.27
2017-01-17T08:47:59.428Z,72.36
2017-01-17T08:48:59.438Z,72.55
2017-01-17T08:49:59.452Z,72.45
2017-01-17T08:50:59.462Z,72.45
2017-01-17T08:51:59.472Z,72.55
2017-01-17T08:52:59.484Z,72.74
2017-01-17T08:53:59.500Z,72.64
2017-01-17T08:54:59.504Z,72.55
2017-01-17T08:55:59.516Z,72.27
2017-01-17T08:56:59.528Z,72.64
2017-01-17T08:57:59.538Z,72.74
2017-01-17T08:58:59.558Z,72.45
2017-01-17T08:59:59.563Z,72.36
2017-01-17T09:00:59.576Z,72.45
2017-01-17T09:01:59.582Z,72.55
2017-01-17T09:02:59.595Z,72.74
2017-01-17T09:03:59.610Z,72.55
2017-01-17T09:04:59.621Z,72.36
2017-01-17T09:05:59.629Z,72.64
2017-01-17T09:06:59.641Z,72.74
2017-01-17T09:07:59.652Z,72.17
2017-01-17T09:08:59.665Z,72.17
2017-01-17T09:09:59.673Z,72.55
2017-01-17T09:10:59.684Z,72.08
2017-01-17T09:11:59.697Z,72.17
2017-01-17T09:12:59.704Z,72.36
2017-01-17T09:13:59.728Z,72.17
2017-01-17T09:14:59.732Z,71.8
2017-01-17T09:15:59.741Z,72.08
2017-01-17T09:16:59.750Z,71.8
2017-01-17T09:17:59.763Z,71.6
2017-01-17T09:18:59.778Z,71.51
2017-01-17T09:19:59.785Z,71.51
2017-01-17T09:20:59.795Z,71.7
2017-01-17T09:21:59.811Z,71.89
2017-01-17T09:22:59.818Z,71.98
2017-01-17T09:23:59.830Z,72.08
2017-01-17T09:24:59.843Z,72.08
2017-01-17T09:25:59.861Z,72.08
2017-01-17T09:26:59.866Z,71.98
2017-01-17T09:27:59.876Z,71.98
2017-01-17T09:28:59.884Z,71.98
2017-01-17T09:29:59.919Z,71.7
2017-01-17T09:30:59.908Z,71.7
2017-01-17T09:31:59.919Z,71.89
2017-01-17T09:32:59.998Z,71.8
2017-01-17T09:33:59.966Z,71.8
2017-01-17T09:34:59.952Z,71.7
2017-01-17T09:36:00.080Z,71.51
2017-01-17T09:36:59.976Z,71.51
2017-01-17T09:37:59.985Z,71.6
2017-01-17T09:39:00.002Z,71.32
2017-01-17T09:40:00.029Z,71.8
2017-01-17T09:41:00.135Z,71.41
2017-01-17T09:42:00.047Z,71.6
2017-01-17T09:43:00.044Z,71.51
2017-01-17T09:44:00.055Z,71.6
2017-01-17T09:45:00.069Z,71.41
2017-01-17T09:46:00.083Z,71.55
2017-01-17T09:47:00.094Z,71.41
2017-01-17T09:48:00.099Z,71.26
2017-01-17T09:49:00.133Z,71.22
2017-01-17T09:50:00.125Z,71.03
2017-01-17T09:51:00.139Z,71.07
2017-01-17T09:52:00.257Z,71.36
2017-01-17T09:53:00.153Z,71.45
2017-01-17T09:54:00.288Z,71.45
2017-01-17T09:55:00.179Z,71.26
2017-01-17T09:56:00.294Z,71.36
2017-01-17T09:57:00.205Z,71.55
2017-01-17T09:58:00.214Z,71.55
2017-01-17T09:59:00.223Z,71.55
2017-01-17T10:00:00.240Z,71.64
2017-01-17T10:01:00.313Z,71.64
2017-01-17T10:02:00.256Z,71.45
2017-01-17T10:03:00.269Z,71.45
2017-01-17T10:04:00.395Z,71.55
2017-01-17T10:05:00.291Z,71.55
2017-01-17T10:06:00.303Z,71.55
2017-01-17T10:07:00.316Z,71.45
2017-01-17T10:08:00.324Z,71.55
2017-01-17T10:09:00.337Z,71.73
2017-01-17T10:10:00.386Z,71.64
2017-01-17T10:11:00.365Z,71.55
2017-01-17T10:12:00.370Z,71.36
2017-01-17T10:13:00.385Z,71.17
2017-01-17T10:14:00.399Z,71.17
2017-01-17T10:15:00.406Z,71.26
2017-01-17T10:16:00.648Z,70.98
2017-01-17T10:17:00.425Z,70.88
2017-01-17T10:18:00.442Z,70.98
2017-01-17T10:19:00.450Z,70.98
2017-01-17T10:20:00.460Z,70.69
2017-01-17T10:21:00.475Z,70.98
2017-01-17T10:22:00.487Z,70.78
2017-01-17T10:23:00.500Z,71.17
2017-01-17T10:24:00.507Z,70.98
2017-01-17T10:25:00.521Z,71.07
2017-01-17T10:26:00.530Z,71.45
2017-01-17T10:27:00.541Z,71.26
2017-01-17T10:28:00.562Z,71.07
2017-01-17T10:29:00.567Z,71.45
2017-01-17T10:30:00.578Z,71.55
2017-01-17T10:31:00.586Z,71.55
2017-01-17T10:32:00.599Z,71.36
2017-01-17T10:33:00.611Z,71.36
2017-01-17T10:34:00.624Z,71.45
2017-01-17T10:35:00.634Z,71.36
2017-01-17T10:36:00.650Z,71.07
2017-01-17T10:37:00.657Z,71.07
2017-01-17T10:38:00.677Z,71.45
2017-01-17T10:39:00.682Z,70.69
2017-01-17T10:40:00.692Z,71.07
2017-01-17T10:41:00.707Z,70.88
2017-01-17T10:42:00.713Z,70.31
2017-01-17T10:43:00.726Z,70.5
2017-01-17T10:44:00.741Z,70.31
2017-01-17T10:45:00.753Z,70.31
2017-01-17T10:46:00.768Z,69.74
2017-01-17T10:47:00.778Z,70.12
2017-01-17T10:48:00.786Z,70.03
2017-01-17T10:49:00.794Z,70.03
2017-01-17T10:50:00.813Z,70.21
2017-01-17T10:51:00.819Z,69.55
2017-01-17T10:52:00.831Z,69.65
2017-01-17T10:53:00.843Z,70.12
2017-01-17T10:54:00.856Z,70.21
2017-01-17T10:55:00.864Z,69.93
2017-01-17T10:56:00.875Z,70.21
2017-01-17T10:57:00.887Z,69.46
2017-01-17T10:58:00.903Z,69.46
2017-01-17T10:59:00.910Z,69.36
2017-01-17T11:00:00.930Z,69.27
2017-01-17T11:01:00.935Z,69.08
2017-01-17T11:02:00.948Z,69.27
2017-01-17T11:03:00.956Z,69.36
2017-01-17T11:04:00.974Z,69.65
2017-01-17T11:05:00.982Z,70.03
2017-01-17T11:06:00.993Z,69.84
2017-01-17T11:07:01.036Z,69.74
2017-01-17T11:08:01.020Z,69.74
2017-01-17T11:09:01.026Z,69.65
2017-01-17T11:10:01.039Z,70.03
2017-01-17T11:11:01.052Z,70.03
2017-01-17T11:12:01.066Z,70.12
2017-01-17T11:13:01.078Z,70.21
2017-01-17T11:14:01.093Z,70.21
2017-01-17T11:15:01.098Z,70.03
2017-01-17T11:16:01.115Z,70.03
2017-01-17T11:17:01.118Z,69.93
2017-01-17T11:18:01.131Z,69.65
2017-01-17T11:19:01.146Z,69.84
2017-01-17T11:20:01.166Z,69.93
2017-01-17T11:21:01.169Z,69.74
2017-01-17T11:22:01.182Z,69.84
2017-01-17T11:23:01.192Z,70.5
2017-01-17T11:24:01.202Z,69.84
2017-01-17T11:25:01.215Z,69.84
2017-01-17T11:26:01.226Z,69.65
2017-01-17T11:27:01.238Z,69.74
2017-01-17T11:28:01.247Z,69.93
2017-01-17T11:29:01.260Z,70.12
2017-01-17T11:30:01.272Z,69.93
2017-01-17T11:31:01.286Z,69.74
2017-01-17T11:32:01.296Z,69.93
2017-01-17T11:33:01.336Z,70.03
2017-01-17T11:34:01.320Z,69.55
2017-01-17T11:35:01.331Z,70.21
2017-01-17T11:36:01.344Z,69.84
2017-01-17T11:37:01.353Z,69.93
2017-01-17T11:38:01.372Z,69.84
2017-01-17T11:39:01.377Z,69.74
2017-01-17T11:40:01.387Z,69.84
2017-01-17T11:41:01.404Z,69.84
2017-01-17T11:42:01.417Z,69.74
2017-01-17T11:43:01.424Z,70.21
2017-01-17T11:44:01.437Z,69.46
2017-01-17T11:45:01.447Z,69.65
2017-01-17T11:46:01.462Z,69.93
2017-01-17T11:47:01.472Z,70.21
2017-01-17T11:48:01.485Z,69.84
2017-01-17T11:49:01.495Z,69.84
2017-01-17T11:50:01.537Z,70.03
2017-01-17T11:51:01.519Z,70.03
2017-01-17T11:52:01.532Z,70.12
2017-01-17T11:53:01.543Z,69.93
2017-01-17T11:54:01.551Z,69.84
2017-01-17T11:55:01.567Z,69.84
2017-01-17T11:56:01.576Z,69.84
2017-01-17T11:57:01.591Z,70.12
2017-01-17T11:58:01.993Z,69.84
2017-01-17T11:59:01.612Z,69.84
2017-01-17T12:00:01.626Z,70.03
2017-01-17T12:01:01.636Z,69.65
2017-01-17T12:02:01.647Z,70.12
2017-01-17T12:03:01.658Z,70.12
2017-01-17T12:04:01.668Z,70.03
2017-01-17T12:05:01.680Z,70.12
2017-01-17T12:06:01.693Z,70.12
2017-01-17T12:07:01.707Z,70.12
2017-01-17T12:08:01.720Z,69.36
2017-01-17T12:09:01.728Z,69.17
2017-01-17T12:10:01.742Z,69.36
2017-01-17T12:11:01.768Z,69.74
2017-01-17T12:12:01.767Z,69.93
2017-01-17T12:13:01.776Z,69.74
2017-01-17T12:14:01.790Z,70.21
2017-01-17T12:15:01.801Z,69.93
2017-01-17T12:16:01.813Z,69.65
2017-01-17T12:17:01.826Z,69.84
2017-01-17T12:18:01.833Z,70.4
2017-01-17T12:19:01.846Z,70.31
2017-01-17T12:20:01.857Z,69.74
2017-01-17T12:21:01.872Z,69.84
2017-01-17T12:22:01.881Z,69.74
2017-01-17T12:23:01.894Z,70.03
2017-01-17T12:24:01.906Z,69.74
2017-01-17T12:25:01.920Z,70.06
2017-01-17T12:26:01.931Z,69.59
2017-01-17T12:27:01.943Z,70.03
2017-01-17T12:28:01.956Z,70.15
2017-01-17T12:29:01.965Z,69.49
2017-01-17T12:30:01.976Z,69.49
2017-01-17T12:31:01.990Z,69.3
2017-01-17T12:32:02.001Z,69.4
2017-01-17T12:33:02.012Z,69.3
2017-01-17T12:34:02.024Z,69.4
2017-01-17T12:35:02.036Z,69.4
2017-01-17T12:36:02.048Z,69.4
2017-01-17T12:37:02.062Z,69.3
2017-01-17T12:38:02.076Z,69.3
2017-01-17T12:39:02.114Z,69.3
2017-01-17T12:40:02.096Z,69.3
2017-01-17T12:41:02.109Z,69.49
2017-01-17T12:42:02.120Z,69.3
2017-01-17T12:43:02.133Z,68.92
2017-01-17T12:44:02.145Z,69.02
2017-01-17T12:45:02.156Z,69.02
2017-01-17T12:46:02.165Z,69.3
2017-01-17T12:47:02.181Z,69.96
2017-01-17T12:48:02.191Z,69.21
2017-01-17T12:49:02.205Z,69.3
2017-01-17T12:50:02.243Z,69.21
2017-01-17T12:51:02.228Z,69.11
2017-01-17T12:52:02.254Z,69.96
2017-01-17T12:53:02.251Z,69.11
2017-01-17T12:54:02.274Z,69.49
2017-01-17T12:55:02.275Z,69.4